createdAt,value
2022-11-09T00:00:44.109Z,99963.63
2022-11-09T00:03:12.769Z,99957.41
2022-11-09T00:05:40.979Z,99962.78
2022-11-09T00:08:10.294Z,99950.94
2022-11-09T00:10:39.131Z,99960.38
2022-11-09T00:13:07.167Z,99963.06
2022-11-09T00:15:36.431Z,99967.63
2022-11-09T00:18:04.471Z,99963.91
2022-11-09T00:20:32.828Z,99944.59
2022-11-09T00:23:00.724Z,99963.06
2022-11-09T00:25:28.872Z,99962.25
2022-11-09T00:27:56.793Z,99960.69
2022-11-09T00:30:27.657Z,99958.53
2022-11-09T00:32:57.375Z,99954.88
2022-11-09T00:35:25.231Z,99951.34
2022-11-09T00:37:53.237Z,99961.09
2022-11-09T00:40:21.220Z,99949.50
2022-11-09T00:42:49.116Z,99937.34
2022-11-09T00:45:17.307Z,99939.06
2022-11-09T00:47:45.717Z,99946.94
2022-11-09T00:50:15.768Z,99946.13
2022-11-09T00:52:44.751Z,99947.97
2022-11-09T00:55:13.031Z,99931.72
2022-11-09T00:57:40.956Z,99934.53
2022-11-09T01:00:11.459Z,99927.47
2022-11-09T01:02:39.351Z,99924.09
2022-11-09T01:05:07.789Z,99913.19
2022-11-09T01:07:37.766Z,99922.94
2022-11-09T01:10:06.450Z,99912.25
2022-11-09T01:12:34.600Z,99926.59
2022-11-09T01:15:02.526Z,99933.00
2022-11-09T01:17:30.463Z,99925.78
2022-11-09T01:19:58.334Z,99926.47
2022-11-09T01:22:26.286Z,99913.50
2022-11-09T01:24:57.501Z,99920.25
2022-11-09T01:27:25.364Z,99917.84
2022-11-09T01:29:53.276Z,99908.25
2022-11-09T01:32:21.172Z,99910.50
2022-11-09T01:34:49.019Z,99912.19
2022-11-09T01:37:17.015Z,99914.03
2022-11-09T01:39:44.912Z,99884.81
2022-11-09T01:42:14.217Z,99901.47
2022-11-09T01:44:43.803Z,99895.25
2022-11-09T01:47:21.088Z,99903.28
2022-11-09T01:49:53.674Z,99895.41
2022-11-09T01:52:26.042Z,99893.56
2022-11-09T01:55:01.395Z,99892.56
2022-11-09T01:57:34.362Z,99888.19
2022-11-09T02:00:08.287Z,99883.81
2022-11-09T02:02:47.141Z,99883.97
2022-11-09T02:05:19.895Z,99881.41
2022-11-09T02:07:51.522Z,99876.19
2022-11-09T02:10:28.892Z,99873.25
2022-11-09T02:13:01.000Z,99866.72
2022-11-09T02:15:29.936Z,99864.91
2022-11-09T02:17:58.519Z,99870.97
2022-11-09T02:20:29.561Z,99870.09
2022-11-09T02:22:59.948Z,99862.22
2022-11-09T02:25:28.638Z,99870.25
2022-11-09T02:27:56.712Z,99878.31
2022-11-09T02:30:25.143Z,99875.63
2022-11-09T02:32:53.685Z,99864.91
2022-11-09T02:35:21.808Z,99867.59
2022-11-09T02:37:51.600Z,99866.59
2022-11-09T02:40:23.952Z,99859.38
2022-11-09T02:42:51.911Z,99859.53
2022-11-09T02:45:20.140Z,99866.59
2022-11-09T02:47:48.102Z,99863.91
2022-11-09T02:50:16.140Z,99858.53
2022-11-09T02:52:44.051Z,99851.31
2022-11-09T02:55:13.796Z,99852.03
2022-11-09T02:57:42.332Z,99853.03
2022-11-09T03:00:14.106Z,99853.19
2022-11-09T03:02:43.240Z,99851.19
2022-11-09T03:05:12.529Z,99851.19
2022-11-09T03:07:43.380Z,99852.03
2022-11-09T03:10:13.986Z,99843.97
2022-11-09T03:12:42.684Z,99840.44
2022-11-09T03:15:13.256Z,99841.59
2022-11-09T03:17:45.194Z,99833.66
2022-11-09T03:20:13.333Z,99835.38
2022-11-09T03:22:42.428Z,99825.59
2022-11-09T03:25:10.951Z,99828.28
2022-11-09T03:27:41.207Z,99822.94
2022-11-09T03:30:10.836Z,99832.00
2022-11-09T03:32:39.148Z,99826.06
2022-11-09T03:35:08.638Z,99820.41
2022-11-09T03:37:36.645Z,99822.53
2022-11-09T03:40:05.751Z,99826.06
2022-11-09T03:42:33.748Z,99829.59
2022-11-09T03:45:03.002Z,99829.59
2022-11-09T03:47:30.898Z,99832.28
2022-11-09T03:49:58.843Z,99830.56
2022-11-09T03:52:26.714Z,99817.16
2022-11-09T03:54:54.601Z,99815.47
2022-11-09T03:57:22.464Z,99823.38
2022-11-09T03:59:50.406Z,99812.63
2022-11-09T04:02:19.747Z,99805.72
2022-11-09T04:04:47.687Z,99822.22
2022-11-09T04:07:16.069Z,99819.03
2022-11-09T04:09:44.030Z,99830.28
2022-11-09T04:12:11.894Z,99830.28
2022-11-09T04:14:39.769Z,99831.28
2022-11-09T04:17:07.658Z,99838.34
2022-11-09T04:19:37.193Z,99828.44
2022-11-09T04:22:05.065Z,99829.31
2022-11-09T04:24:33.081Z,99832.84
2022-11-09T04:27:01.225Z,99835.38
2022-11-09T04:29:29.115Z,99829.16
2022-11-09T04:31:56.971Z,99834.69
2022-11-09T04:34:24.898Z,99817.75
2022-11-09T04:36:54.188Z,99832.97
2022-11-09T04:39:22.141Z,99837.47
2022-11-09T04:41:50.013Z,99832.28
2022-11-09T04:44:17.915Z,99835.81
2022-11-09T04:46:45.820Z,99825.06
2022-11-09T04:49:13.706Z,99834.81
2022-11-09T04:51:41.613Z,99822.13
2022-11-09T04:54:11.843Z,99842.16
2022-11-09T04:56:39.724Z,99839.63
2022-11-09T04:59:07.754Z,99841.31
2022-11-09T05:01:35.898Z,99841.47
2022-11-09T05:04:03.824Z,99841.31
2022-11-09T05:06:34.855Z,99836.78
2022-11-09T05:09:05.691Z,99832.28
2022-11-09T05:11:36.009Z,99838.50
2022-11-09T05:14:04.895Z,99844.72
2022-11-09T05:16:34.107Z,99838.78
2022-11-09T05:19:02.107Z,99839.19
2022-11-09T05:21:30.020Z,99841.88
2022-11-09T05:23:59.618Z,99840.91
2022-11-09T05:26:29.579Z,99844.41
2022-11-09T05:28:59.878Z,99832.13
2022-11-09T05:31:28.609Z,99835.38
2022-11-09T05:33:57.218Z,99836.22
2022-11-09T05:36:25.140Z,99847.81
2022-11-09T05:38:53.464Z,99841.59
2022-11-09T05:41:21.792Z,99849.63
2022-11-09T05:43:50.032Z,99851.31
2022-11-09T05:46:20.462Z,99861.06
2022-11-09T05:48:48.527Z,99846.00
2022-11-09T05:51:17.176Z,99864.75
2022-11-09T05:53:46.700Z,99858.69
2022-11-09T05:56:16.075Z,99869.28
2022-11-09T05:58:44.448Z,99869.28
2022-11-09T06:01:13.721Z,99862.06
2022-11-09T06:03:44.413Z,99863.75
2022-11-09T06:06:14.642Z,99844.44
2022-11-09T06:08:43.004Z,99871.81
2022-11-09T06:11:15.616Z,99867.28
2022-11-09T06:13:46.495Z,99867.28
2022-11-09T06:16:14.384Z,99864.59
2022-11-09T06:18:43.646Z,99850.22
2022-11-09T06:21:11.972Z,99861.06
2022-11-09T06:23:39.885Z,99869.28
2022-11-09T06:26:10.403Z,99865.75
2022-11-09T06:28:38.988Z,99874.78
2022-11-09T06:31:09.119Z,99875.63
2022-11-09T06:33:37.791Z,99871.25
2022-11-09T06:36:07.390Z,99866.88
2022-11-09T06:38:35.295Z,99883.13
2022-11-09T06:41:03.178Z,99875.06
2022-11-09T06:43:31.226Z,99881.28
2022-11-09T06:46:00.888Z,99879.47
2022-11-09T06:48:28.979Z,99861.00
2022-11-09T06:51:01.262Z,99876.94
2022-11-09T06:53:31.197Z,99877.06
2022-11-09T06:55:59.834Z,99867.19
2022-11-09T06:58:28.309Z,99885.97
2022-11-09T07:00:56.635Z,99876.22
2022-11-09T07:03:25.128Z,99879.91
2022-11-09T07:05:53.872Z,99884.25
2022-11-09T07:08:21.979Z,99880.75
2022-11-09T07:10:51.195Z,99874.38
2022-11-09T07:13:19.326Z,99870.84
2022-11-09T07:15:54.570Z,99881.44
2022-11-09T07:18:22.559Z,99891.34
2022-11-09T07:20:50.517Z,99886.94
2022-11-09T07:23:18.990Z,99890.47
2022-11-09T07:25:47.192Z,99897.69
2022-11-09T07:28:17.117Z,99893.88
2022-11-09T07:30:45.397Z,99884.88
2022-11-09T07:33:15.561Z,99868.75
2022-11-09T07:35:43.464Z,99896.69
2022-11-09T07:38:12.047Z,99896.88
2022-11-09T07:40:40.850Z,99890.47
2022-11-09T07:43:09.269Z,99890.47
2022-11-09T07:45:41.088Z,99896.69
2022-11-09T07:48:12.146Z,99900.38
2022-11-09T07:50:41.259Z,99893.91
2022-11-09T07:53:11.597Z,99898.53
2022-11-09T07:55:39.654Z,99893.31
2022-11-09T07:58:10.034Z,99904.59
2022-11-09T08:00:41.099Z,99899.09
2022-11-09T08:03:09.545Z,99907.16
2022-11-09T08:05:38.729Z,99900.78
2022-11-09T08:08:08.605Z,99891.91
2022-11-09T08:10:37.394Z,99890.75
2022-11-09T08:13:07.040Z,99896.94
2022-11-09T08:15:36.360Z,99903.19
2022-11-09T08:18:07.752Z,99893.28
2022-11-09T08:20:35.924Z,99898.69
2022-11-09T08:23:04.712Z,99913.06
2022-11-09T08:25:34.192Z,99912.25
2022-11-09T08:28:02.175Z,99907.69
2022-11-09T08:30:30.537Z,99910.94
2022-11-09T08:32:59.807Z,99886.94
2022-11-09T08:35:29.707Z,99908.81
2022-11-09T08:38:00.954Z,99910.50
2022-11-09T08:40:29.006Z,99923.81
2022-11-09T08:42:57.004Z,99925.47
2022-11-09T08:45:24.871Z,99918.44
2022-11-09T08:47:59.262Z,99887.50
2022-11-09T08:50:27.950Z,99913.91
2022-11-09T08:52:57.682Z,99917.97
2022-11-09T08:55:26.130Z,99918.69
2022-11-09T08:57:55.976Z,99913.31
2022-11-09T09:00:24.369Z,99911.38
2022-11-09T09:02:52.329Z,99912.19
2022-11-09T09:05:21.020Z,99904.88
2022-11-09T09:07:48.963Z,99907.69
2022-11-09T09:10:18.563Z,99891.44
2022-11-09T09:12:46.559Z,99895.25
2022-11-09T09:15:14.484Z,99904.88
2022-11-09T09:17:42.372Z,99912.91
2022-11-09T09:20:10.525Z,99911.22
2022-11-09T09:22:38.530Z,99905.00
2022-11-09T09:25:07.412Z,99907.53
2022-11-09T09:27:37.946Z,99909.38
2022-11-09T09:30:06.815Z,99905.69
2022-11-09T09:32:34.697Z,99903.72
2022-11-09T09:35:02.599Z,99902.88
2022-11-09T09:37:30.471Z,99899.16
2022-11-09T09:39:58.376Z,99884.91
2022-11-09T09:42:34.769Z,99906.41
2022-11-09T09:45:09.825Z,99898.34
2022-11-09T09:47:47.653Z,99887.59
2022-11-09T09:50:19.961Z,99909.38
2022-11-09T09:53:21.967Z,99909.38
2022-11-09T09:55:46.220Z,99911.78
2022-11-09T09:58:18.513Z,99908.25
2022-11-09T10:00:49.272Z,99904.53
2022-11-09T10:03:20.721Z,99894.41
2022-11-09T10:05:59.273Z,99908.78
2022-11-09T10:08:41.544Z,99904.25
2022-11-09T10:11:22.472Z,99907.78
2022-11-09T10:14:02.528Z,99921.22
2022-11-09T10:16:39.847Z,99922.06
2022-11-09T10:19:31.647Z,99918.38
2022-11-09T10:22:13.239Z,99911.78
2022-11-09T10:25:18.960Z,99926.31
2022-11-09T10:27:46.905Z,99924.88
2022-11-09T10:30:17.666Z,99917.22
2022-11-09T10:32:51.523Z,99915.56
2022-11-09T10:35:22.111Z,99902.72
2022-11-09T10:37:52.251Z,99908.47
2022-11-09T10:40:24.090Z,99904.81
2022-11-09T10:43:12.520Z,99893.50
2022-11-09T10:46:04.799Z,99876.31
2022-11-09T10:48:53.368Z,99885.16
2022-11-09T10:51:42.443Z,99878.81
2022-11-09T10:54:32.573Z,99892.75
2022-11-09T10:57:21.197Z,99868.47
2022-11-09T11:00:16.150Z,99889.66
2022-11-09T11:03:12.583Z,99893.88
2022-11-09T11:06:02.487Z,99897.94
2022-11-09T11:08:50.961Z,99886.97
2022-11-09T11:11:39.489Z,99897.66
2022-11-09T11:14:33.040Z,99899.19
2022-11-09T11:17:24.273Z,99897.38
2022-11-09T11:20:35.609Z,99898.22
2022-11-09T11:23:25.578Z,99902.88
2022-11-09T11:26:36.695Z,99904.28
2022-11-09T11:29:32.653Z,99896.06
2022-11-09T11:32:21.648Z,99887.16
2022-11-09T11:35:15.916Z,99878.78
2022-11-09T11:38:14.424Z,99868.34
2022-11-09T11:41:31.375Z,99875.81
2022-11-09T11:44:31.373Z,99872.44
2022-11-09T11:47:28.187Z,99867.06
2022-11-09T11:50:33.643Z,99864.38
2022-11-09T11:53:35.660Z,99862.06
2022-11-09T11:56:31.690Z,99867.28
2022-11-09T11:59:34.531Z,99850.38
2022-11-09T12:02:40.851Z,99875.22
2022-11-09T12:05:48.920Z,99865.44
2022-11-09T12:08:46.143Z,99870.81
2022-11-09T12:11:45.195Z,99868.00
2022-11-09T12:14:42.957Z,99870.69
2022-11-09T12:17:40.845Z,99875.22
2022-11-09T12:20:33.503Z,99874.53
2022-11-09T12:23:37.023Z,99869.84
2022-11-09T12:26:35.841Z,99869.97
2022-11-09T12:29:28.100Z,99869.00
2022-11-09T12:32:29.243Z,99865.16
2022-11-09T12:35:26.552Z,99871.38
2022-11-09T12:38:19.281Z,99877.59
2022-11-09T12:41:11.560Z,99873.91
2022-11-09T12:44:02.415Z,99869.53
2022-11-09T12:46:57.840Z,99860.47
2022-11-09T12:49:47.212Z,99873.06
2022-11-09T12:52:34.169Z,99881.84
2022-11-09T12:55:25.062Z,99887.03
2022-11-09T12:58:23.467Z,99893.13
2022-11-09T13:01:14.238Z,99893.97
2022-11-09T13:04:04.058Z,99878.03
2022-11-09T13:07:19.438Z,99890.41
2022-11-09T13:10:06.864Z,99894.94
2022-11-09T13:13:03.629Z,99891.97
2022-11-09T13:16:13.580Z,99900.03
2022-11-09T13:19:00.453Z,99895.81
2022-11-09T13:21:48.383Z,99886.06
2022-11-09T13:24:57.182Z,99885.03
2022-11-09T13:27:45.691Z,99878.97
2022-11-09T13:30:50.430Z,99891.16
2022-11-09T13:33:39.277Z,99890.41
2022-11-09T13:36:26.019Z,99882.34
2022-11-09T13:39:30.749Z,99876.84
2022-11-09T13:42:28.648Z,99884.06
2022-11-09T13:45:31.078Z,99886.75
2022-11-09T13:48:30.421Z,99882.22
2022-11-09T13:51:19.652Z,99893.97
2022-11-09T13:54:26.996Z,99893.13
2022-11-09T13:57:16.487Z,99899.22
2022-11-09T14:00:05.518Z,99905.41
2022-11-09T14:02:57.813Z,99898.66
2022-11-09T14:05:45.547Z,99904.25
2022-11-09T14:08:40.354Z,99886.38
2022-11-09T14:12:10.039Z,99903.28
2022-11-09T14:15:10.672Z,99900.59
2022-11-09T14:18:10.958Z,99906.81
2022-11-09T14:21:03.715Z,99896.06
2022-11-09T14:23:50.383Z,99905.97
2022-11-09T14:26:36.922Z,99905.66
2022-11-09T14:29:25.025Z,99909.63
2022-11-09T14:32:25.913Z,99900.59
2022-11-09T14:35:25.513Z,99903.28
2022-11-09T14:38:19.462Z,99897.91
2022-11-09T14:41:06.807Z,99900.31
2022-11-09T14:43:54.799Z,99909.09
2022-11-09T14:46:41.597Z,99905.69
2022-11-09T14:49:30.768Z,99908.38
2022-11-09T14:52:21.778Z,99899.50
2022-11-09T14:55:14.258Z,99906.56
2022-11-09T14:58:01.011Z,99899.50
2022-11-09T15:01:07.016Z,99903.88
2022-11-09T15:04:12.216Z,99901.47
2022-11-09T15:07:03.111Z,99894.78
2022-11-09T15:09:52.209Z,99911.53
2022-11-09T15:12:43.849Z,99911.41
2022-11-09T15:15:35.693Z,99905.19
2022-11-09T15:18:28.941Z,99912.22
2022-11-09T15:21:20.753Z,99912.56
2022-11-09T15:24:16.206Z,99917.19
2022-11-09T15:27:02.907Z,99918.22
2022-11-09T15:29:49.626Z,99924.44
2022-11-09T15:32:40.393Z,99921.75
2022-11-09T15:35:26.981Z,99913.59
2022-11-09T15:38:35.331Z,99921.88
2022-11-09T15:41:25.454Z,99916.81
2022-11-09T15:44:14.467Z,99905.72
2022-11-09T15:47:00.723Z,99924.47
2022-11-09T15:49:47.372Z,99934.53
2022-11-09T15:52:33.708Z,99935.50
2022-11-09T15:55:22.592Z,99931.28
2022-11-09T15:58:14.009Z,99924.25
2022-11-09T16:01:00.775Z,99927.34
2022-11-09T16:03:47.619Z,99924.66
2022-11-09T16:06:34.002Z,99925.81
2022-11-09T16:09:20.679Z,99920.63
2022-11-09T16:12:07.520Z,99940.69
2022-11-09T16:14:55.110Z,99929.56
2022-11-09T16:17:41.635Z,99933.34
2022-11-09T16:20:28.155Z,99940.88
2022-11-09T16:23:14.641Z,99940.31
2022-11-09T16:26:04.781Z,99930.88
2022-11-09T16:28:51.464Z,99928.31
2022-11-09T16:31:55.401Z,99934.53
2022-11-09T16:34:41.872Z,99939.31
2022-11-09T16:37:31.501Z,99934.25
2022-11-09T16:40:18.500Z,99936.38
2022-11-09T16:43:05.132Z,99926.81
2022-11-09T16:45:51.705Z,99940.19
2022-11-09T16:48:39.752Z,99951.09
2022-11-09T16:51:26.488Z,99946.84
2022-11-09T16:54:12.720Z,99950.66
2022-11-09T16:56:59.360Z,99926.97
2022-11-09T16:59:45.925Z,99932.91
2022-11-09T17:02:32.191Z,99948.41
2022-11-09T17:05:19.927Z,99950.41
2022-11-09T17:08:06.808Z,99948.00
2022-11-09T17:10:52.983Z,99956.91
2022-11-09T17:13:39.724Z,99939.13
2022-11-09T17:16:26.376Z,99933.19
2022-11-09T17:19:14.365Z,99955.47
2022-11-09T17:22:02.547Z,99956.31
2022-11-09T17:24:49.193Z,99952.09
2022-11-09T17:27:36.067Z,99956.59
2022-11-09T17:30:23.282Z,99955.78
2022-11-09T17:33:09.695Z,99954.94
2022-11-09T17:36:00.873Z,99947.88
2022-11-09T17:38:48.620Z,99958.59
2022-11-09T17:41:40.026Z,99945.03
2022-11-09T17:44:28.824Z,99950.81
2022-11-09T17:47:15.106Z,99951.13
2022-11-09T17:50:01.426Z,99957.31
2022-11-09T17:52:47.600Z,99954.66
2022-11-09T17:55:38.070Z,99941.53
2022-11-09T17:58:24.892Z,99948.75
2022-11-09T18:01:13.241Z,99939.41
2022-11-09T18:04:03.013Z,99932.63
2022-11-09T18:06:53.043Z,99947.72
2022-11-09T18:09:42.063Z,99950.41
2022-11-09T18:12:30.770Z,99953.09
2022-11-09T18:15:17.528Z,99949.56
2022-11-09T18:18:04.615Z,99944.22
2022-11-09T18:20:50.984Z,99951.69
2022-11-09T18:23:38.064Z,99952.69
2022-11-09T18:26:24.473Z,99967.94
2022-11-09T18:29:12.383Z,99944.50
2022-11-09T18:31:58.897Z,99954.66
2022-11-09T18:34:45.768Z,99955.09
2022-11-09T18:37:34.793Z,99967.22
2022-11-09T18:40:21.316Z,99958.47
2022-11-09T18:43:07.500Z,99967.38
2022-11-09T18:46:02.811Z,99964.84
2022-11-09T18:48:52.079Z,99979.09
2022-11-09T18:51:38.398Z,99981.06
2022-11-09T18:54:24.888Z,99983.75
2022-11-09T18:57:15.905Z,99986.44
2022-11-09T19:00:06.447Z,99987.41
2022-11-09T19:02:54.089Z,99968.94
2022-11-09T19:05:41.320Z,99991.97
2022-11-09T19:08:45.100Z,100000.13
2022-11-09T19:11:32.714Z,99989.69
2022-11-09T19:14:19.529Z,99992.38
2022-11-09T19:17:05.957Z,99995.03
2022-11-09T19:19:54.031Z,99994.94
2022-11-09T19:22:40.631Z,100000.28
2022-11-09T19:25:27.467Z,100004.66
2022-11-09T19:28:14.570Z,99983.34
2022-11-09T19:31:01.389Z,99995.03
2022-11-09T19:33:48.590Z,100004.09
2022-11-09T19:36:36.592Z,100004.09
2022-11-09T19:39:23.470Z,100007.06
2022-11-09T19:42:10.098Z,100007.91
2022-11-09T19:44:58.911Z,100010.59
2022-11-09T19:47:45.987Z,100010.72
2022-11-09T19:50:32.477Z,100017.09
2022-11-09T19:53:22.383Z,100011.56
2022-11-09T19:56:09.837Z,100008.31
2022-11-09T19:58:58.822Z,100016.25
2022-11-09T20:01:46.487Z,100022.56
2022-11-09T20:04:33.404Z,100016.34
2022-11-09T20:07:19.977Z,100027.09
2022-11-09T20:10:09.599Z,100025.41
2022-11-09T20:12:56.260Z,100016.78
2022-11-09T20:15:43.206Z,100026.38
2022-11-09T20:18:30.628Z,100031.63
2022-11-09T20:21:17.688Z,99978.19
2022-11-09T20:24:05.082Z,100036.25
2022-11-09T20:26:53.393Z,100033.47
2022-11-09T20:29:40.335Z,100027.41
2022-11-09T20:32:27.272Z,100030.91
2022-11-09T20:35:14.430Z,100036.25
2022-11-09T20:38:01.018Z,100032.75
2022-11-09T20:40:54.635Z,100031.75
2022-11-09T20:43:42.587Z,100008.13
2022-11-09T20:46:35.436Z,100008.81
2022-11-09T20:49:23.639Z,100033.75
2022-11-09T20:52:10.192Z,100035.56
2022-11-09T20:54:56.388Z,100030.34
2022-11-09T20:57:42.564Z,100033.03
2022-11-09T21:00:30.976Z,100021.97
2022-11-09T21:03:17.632Z,100019.84
2022-11-09T21:06:06.313Z,100025.22
2022-11-09T21:08:56.971Z,100036.69
2022-11-09T21:11:57.392Z,100043.00
2022-11-09T21:14:43.695Z,100041.31
2022-11-09T21:17:32.162Z,100038.47
2022-11-09T21:20:18.915Z,100042.75
2022-11-09T21:23:23.465Z,100015.19
2022-11-09T21:26:27.599Z,100045.16
2022-11-09T21:29:41.766Z,99995.13
2022-11-09T21:32:30.650Z,100044.19
2022-11-09T21:35:18.775Z,100042.91
2022-11-09T21:38:05.548Z,100037.44
2022-11-09T21:40:52.408Z,100031.22
2022-11-09T21:43:39.087Z,100035.72
2022-11-09T21:46:25.950Z,100018.78
2022-11-09T21:49:14.300Z,100036.03
2022-11-09T21:52:03.465Z,100040.38
2022-11-09T21:54:50.224Z,100025.13
2022-11-09T21:57:36.546Z,100051.81
2022-11-09T22:00:22.972Z,100050.84
2022-11-09T22:03:09.704Z,100053.38
2022-11-09T22:05:56.397Z,100051.53
2022-11-09T22:08:44.767Z,100052.41
2022-11-09T22:11:45.370Z,100051.53
2022-11-09T22:14:49.456Z,100058.63
2022-11-09T22:17:35.889Z,100062.28
2022-11-09T22:20:40.054Z,100063.28
2022-11-09T22:23:26.570Z,100069.34
2022-11-09T22:26:15.105Z,100067.38
2022-11-09T22:29:01.570Z,100061.56
2022-11-09T22:31:47.900Z,100067.09
2022-11-09T22:34:34.594Z,100058.75
2022-11-09T22:37:21.156Z,100060.03
2022-11-09T22:40:09.121Z,100065.25
2022-11-09T22:42:58.288Z,100049.88
2022-11-09T22:45:45.120Z,100072.31
2022-11-09T22:48:32.472Z,100059.91
2022-11-09T22:51:19.658Z,100069.78
2022-11-09T22:54:06.169Z,100058.03
2022-11-09T22:56:52.782Z,100072.31
2022-11-09T22:59:41.646Z,100077.56
2022-11-09T23:02:27.952Z,100076.81
2022-11-09T23:05:14.356Z,100080.50
2022-11-09T23:08:00.760Z,100078.53
2022-11-09T23:10:55.272Z,100085.59
2022-11-09T23:13:42.297Z,100086.59
2022-11-09T23:16:30.186Z,100086.59
2022-11-09T23:19:16.207Z,100089.25
2022-11-09T23:22:02.997Z,100089.41
2022-11-09T23:25:07.054Z,100091.09
2022-11-09T23:27:53.924Z,100089.41
2022-11-09T23:30:40.582Z,100088.69
2022-11-09T23:33:28.687Z,100097.75
2022-11-09T23:36:15.311Z,100105.94
2022-11-09T23:39:01.611Z,100077.13
2022-11-09T23:41:48.573Z,100090.81
2022-11-09T23:44:34.745Z,100097.91
2022-11-09T23:47:21.578Z,100101.56
2022-11-09T23:50:09.400Z,100097.91
2022-11-09T23:52:57.949Z,100099.88
2022-11-09T23:55:45.401Z,100096.34
2022-11-09T23:58:32.105Z,100103.38
